sensor_id;sensor_type;location;lat;lon;timestamp;pressure;altitude;pressure_sealevel;temperature
64600;BMP280;6553;48.412;9.514;2023-02-11T00:00:23;71657.69;;;19.79
64600;BMP280;6553;48.412;9.514;2023-02-11T00:02:48;71653.88;;;19.78
64600;BMP280;6553;48.412;9.514;2023-02-11T00:05:14;71656.63;;;19.78
64600;BMP280;6553;48.412;9.514;2023-02-11T00:07:40;71652.91;;;19.75
64600;BMP280;6553;48.412;9.514;2023-02-11T00:10:07;71657.16;;;19.79
64600;BMP280;6553;48.412;9.514;2023-02-11T00:12:35;71656.09;;;19.78
64600;BMP280;6553;48.412;9.514;2023-02-11T00:15:02;71649.63;;;19.74
64600;BMP280;6553;48.412;9.514;2023-02-11T00:17:28;71651.84;;;19.74
64600;BMP280;6553;48.412;9.514;2023-02-11T00:19:54;71647.50;;;19.72
64600;BMP280;6553;48.412;9.514;2023-02-11T00:22:20;71656.22;;;19.75
64600;BMP280;6553;48.412;9.514;2023-02-11T00:24:46;71651.84;;;19.74
64600;BMP280;6553;48.412;9.514;2023-02-11T00:27:11;71650.78;;;19.73
64600;BMP280;6553;48.412;9.514;2023-02-11T00:29:38;71652.38;;;19.74
64600;BMP280;6553;48.412;9.514;2023-02-11T00:32:04;71652.38;;;19.74
64600;BMP280;6553;48.412;9.514;2023-02-11T00:34:31;71652.50;;;19.72
64600;BMP280;6553;48.412;9.514;2023-02-11T00:36:57;71646.41;;;19.71
64600;BMP280;6553;48.412;9.514;2023-02-11T00:39:22;71649.06;;;19.74
64600;BMP280;6553;48.412;9.514;2023-02-11T00:41:48;71655.69;;;19.75
64600;BMP280;6553;48.412;9.514;2023-02-11T00:44:14;71652.91;;;19.75
64600;BMP280;6553;48.412;9.514;2023-02-11T00:46:40;71645.78;;;19.73
64600;BMP280;6553;48.412;9.514;2023-02-11T00:49:09;71654.09;;;19.73
64600;BMP280;6553;48.412;9.514;2023-02-11T00:51:35;71649.06;;;19.74
64600;BMP280;6553;48.412;9.514;2023-02-11T00:54:03;71651.31;;;19.73
64600;BMP280;6553;48.412;9.514;2023-02-11T00:56:28;71649.19;;;19.71
64600;BMP280;6553;48.412;9.514;2023-02-11T00:58:55;71647.50;;;19.72
64600;BMP280;6553;48.412;9.514;2023-02-11T01:01:20;71650.25;;;19.72
64600;BMP280;6553;48.412;9.514;2023-02-11T01:03:46;71640.47;;;19.68
64600;BMP280;6553;48.412;9.514;2023-02-11T01:06:12;71643.13;;;19.71
64600;BMP280;6553;48.412;9.514;2023-02-11T01:08:38;71646.53;;;19.69
64600;BMP280;6553;48.412;9.514;2023-02-11T01:11:11;71644.31;;;19.69
64600;BMP280;6553;48.412;9.514;2023-02-11T01:13:37;71648.25;;;19.68
64600;BMP280;6553;48.412;9.514;2023-02-11T01:16:07;71646.53;;;19.69
64600;BMP280;6553;48.412;9.514;2023-02-11T01:18:34;71639.00;;;19.64
64600;BMP280;6553;48.412;9.514;2023-02-11T01:21:00;71643.38;;;19.66
64600;BMP280;6553;48.412;9.514;2023-02-11T01:23:26;71641.66;;;19.67
64600;BMP280;6553;48.412;9.514;2023-02-11T01:25:52;71641.66;;;19.67
64600;BMP280;6553;48.412;9.514;2023-02-11T01:28:23;71647.06;;;19.69
64600;BMP280;6553;48.412;9.514;2023-02-11T01:30:50;71644.94;;;19.67
64600;BMP280;6553;48.412;9.514;2023-02-11T01:33:16;71641.13;;;19.66
64600;BMP280;6553;48.412;9.514;2023-02-11T01:35:43;71644.41;;;19.67
64600;BMP280;6553;48.412;9.514;2023-02-11T01:38:36;71643.38;;;19.66
64600;BMP280;6553;48.412;9.514;2023-02-11T01:41:06;71645.59;;;19.65
64600;BMP280;6553;48.412;9.514;2023-02-11T01:43:44;71640.69;;;19.63
64600;BMP280;6553;48.412;9.514;2023-02-11T01:46:33;71635.16;;;19.63
64600;BMP280;6553;48.412;9.514;2023-02-11T01:49:11;71637.91;;;19.63
64600;BMP280;6553;48.412;9.514;2023-02-11T01:51:45;71635.16;;;19.63
64600;BMP280;6553;48.412;9.514;2023-02-11T01:54:21;71641.75;;;19.64
64600;BMP280;6553;48.412;9.514;2023-02-11T01:57:09;71639.00;;;19.64
64600;BMP280;6553;48.412;9.514;2023-02-11T02:00:19;71640.16;;;19.63
64600;BMP280;6553;48.412;9.514;2023-02-11T02:03:07;71637.41;;;19.63
64600;BMP280;6553;48.412;9.514;2023-02-11T02:06:01;71640.16;;;19.63
64600;BMP280;6553;48.412;9.514;2023-02-11T02:08:40;71640.69;;;19.63
64600;BMP280;6553;48.412;9.514;2023-02-11T02:11:07;71635.28;;;19.60
64600;BMP280;6553;48.412;9.514;2023-02-11T02:13:36;71636.34;;;19.62
64600;BMP280;6553;48.412;9.514;2023-02-11T02:16:11;71639.66;;;19.62
64600;BMP280;6553;48.412;9.514;2023-02-11T02:22:45;71636.44;;;19.59
64600;BMP280;6553;48.412;9.514;2023-02-11T02:35:45;71638.69;;;19.58
64600;BMP280;6553;48.412;9.514;2023-02-11T02:38:29;71634.88;;;19.57
64600;BMP280;6553;48.412;9.514;2023-02-11T02:41:06;71634.88;;;19.57
64600;BMP280;6553;48.412;9.514;2023-02-11T02:43:33;71636.97;;;19.59
64600;BMP280;6553;48.412;9.514;2023-02-11T02:46:33;71633.78;;;19.56
64600;BMP280;6553;48.412;9.514;2023-02-11T02:49:00;71636.56;;;19.56
64600;BMP280;6553;48.412;9.514;2023-02-11T02:51:51;71636.56;;;19.56
64600;BMP280;6553;48.412;9.514;2023-02-11T02:57:29;71633.25;;;19.56
64600;BMP280;6553;48.412;9.514;2023-02-11T03:03:40;71632.09;;;19.57
64600;BMP280;6553;48.412;9.514;2023-02-11T03:09:05;71632.19;;;19.55
64600;BMP280;6553;48.412;9.514;2023-02-11T03:11:33;71631.66;;;19.54
64600;BMP280;6553;48.412;9.514;2023-02-11T03:14:02;71632.75;;;19.55
64600;BMP280;6553;48.412;9.514;2023-02-11T03:16:30;71631.66;;;19.54
64600;BMP280;6553;48.412;9.514;2023-02-11T03:19:11;71626.78;;;19.52
64600;BMP280;6553;48.412;9.514;2023-02-11T03:21:39;71631.13;;;19.54
64600;BMP280;6553;48.412;9.514;2023-02-11T03:24:13;71631.78;;;19.52
64600;BMP280;6553;48.412;9.514;2023-02-11T03:26:49;71627.97;;;19.51
64600;BMP280;6553;48.412;9.514;2023-02-11T03:29:37;71627.41;;;19.50
64600;BMP280;6553;48.412;9.514;2023-02-11T03:32:18;71622.41;;;19.51
64600;BMP280;6553;48.412;9.514;2023-02-11T03:35:14;71625.19;;;19.51
64600;BMP280;6553;48.412;9.514;2023-02-11T03:38:00;71626.88;;;19.50
64600;BMP280;6553;48.412;9.514;2023-02-11T03:40:34;71626.34;;;19.49
64600;BMP280;6553;48.412;9.514;2023-02-11T03:43:19;71625.31;;;19.48
64600;BMP280;6553;48.412;9.514;2023-02-11T03:45:50;71627.97;;;19.51
64600;BMP280;6553;48.412;9.514;2023-02-11T03:48:28;71623.56;;;19.49
64600;BMP280;6553;48.412;9.514;2023-02-11T03:50:59;71629.66;;;19.50
64600;BMP280;6553;48.412;9.514;2023-02-11T03:53:27;71627.41;;;19.50
64600;BMP280;6553;48.412;9.514;2023-02-11T03:55:56;71626.88;;;19.50
64600;BMP280;6553;48.412;9.514;2023-02-11T03:58:23;71626.88;;;19.50
64600;BMP280;6553;48.412;9.514;2023-02-11T04:00:49;71629.66;;;19.50
64600;BMP280;6553;48.412;9.514;2023-02-11T04:03:15;71627.97;;;19.51
64600;BMP280;6553;48.412;9.514;2023-02-11T04:05:41;71627.41;;;19.50
64600;BMP280;6553;48.412;9.514;2023-02-11T04:08:07;71622.00;;;19.48
64600;BMP280;6553;48.412;9.514;2023-02-11T04:10:33;71623.16;;;19.46
64600;BMP280;6553;48.412;9.514;2023-02-11T04:12:59;71637.53;;;19.47
64600;BMP280;6553;48.412;9.514;2023-02-11T04:15:25;71630.31;;;19.48
64600;BMP280;6553;48.412;9.514;2023-02-11T04:17:51;71622.63;;;19.46
64600;BMP280;6553;48.412;9.514;2023-02-11T04:20:17;71623.16;;;19.46
64600;BMP280;6553;48.412;9.514;2023-02-11T04:22:42;71621.47;;;19.47
64600;BMP280;6553;48.412;9.514;2023-02-11T04:25:08;71620.94;;;19.47
64600;BMP280;6553;48.412;9.514;2023-02-11T04:27:35;71618.84;;;19.45
64600;BMP280;6553;48.412;9.514;2023-02-11T04:30:05;71625.41;;;19.46
64600;BMP280;6553;48.412;9.514;2023-02-11T04:32:31;71624.38;;;19.45
64600;BMP280;6553;48.412;9.514;2023-02-11T04:34:57;71625.41;;;19.46
64600;BMP280;6553;48.412;9.514;2023-02-11T04:37:22;71617.22;;;19.43
64600;BMP280;6553;48.412;9.514;2023-02-11T04:39:48;71617.75;;;19.44
64600;BMP280;6553;48.412;9.514;2023-02-11T04:42:14;71622.09;;;19.45
64600;BMP280;6553;48.412;9.514;2023-02-11T04:44:40;71621.06;;;19.44
64600;BMP280;6553;48.412;9.514;2023-02-11T04:47:05;71627.53;;;19.48
64600;BMP280;6553;48.412;9.514;2023-02-11T04:49:31;71624.25;;;19.47
64600;BMP280;6553;48.412;9.514;2023-02-11T04:51:57;71621.47;;;19.47
64600;BMP280;6553;48.412;9.514;2023-02-11T04:54:22;71626.34;;;19.49
64600;BMP280;6553;48.412;9.514;2023-02-11T04:56:48;71621.59;;;19.45
64600;BMP280;6553;48.412;9.514;2023-02-11T04:59:15;71623.16;;;19.46
64600;BMP280;6553;48.412;9.514;2023-02-11T05:01:41;71618.16;;;19.47
64600;BMP280;6553;48.412;9.514;2023-02-11T05:04:07;71613.38;;;19.42
64600;BMP280;6553;48.412;9.514;2023-02-11T05:06:33;71620.94;;;19.47
64600;BMP280;6553;48.412;9.514;2023-02-11T05:08:58;71622.63;;;19.46
64600;BMP280;6553;48.412;9.514;2023-02-11T05:11:25;71623.84;;;19.44
64600;BMP280;6553;48.412;9.514;2023-02-11T05:13:51;71619.34;;;19.45
64600;BMP280;6553;48.412;9.514;2023-02-11T05:16:18;71624.38;;;19.45
64600;BMP280;6553;48.412;9.514;2023-02-11T05:18:44;71617.22;;;19.43
64600;BMP280;6553;48.412;9.514;2023-02-11T05:21:15;71620.41;;;19.46
64600;BMP280;6553;48.412;9.514;2023-02-11T05:23:42;71622.75;;;19.43
64600;BMP280;6553;48.412;9.514;2023-02-11T05:26:09;71619.88;;;19.46
64600;BMP280;6553;48.412;9.514;2023-02-11T05:28:34;71617.75;;;19.44
64600;BMP280;6553;48.412;9.514;2023-02-11T05:31:01;71622.00;;;19.48
64600;BMP280;6553;48.412;9.514;2023-02-11T05:33:27;71624.25;;;19.47
64600;BMP280;6553;48.412;9.514;2023-02-11T05:36:02;71628.59;;;19.49
64600;BMP280;6553;48.412;9.514;2023-02-11T05:38:29;71629.25;;;19.47
64600;BMP280;6553;48.412;9.514;2023-02-11T05:40:55;71626.34;;;19.49
64600;BMP280;6553;48.412;9.514;2023-02-11T05:43:21;71620.41;;;19.46
64600;BMP280;6553;48.412;9.514;2023-02-11T05:45:47;71623.06;;;19.49
64600;BMP280;6553;48.412;9.514;2023-02-11T05:48:13;71623.72;;;19.47
64600;BMP280;6553;48.412;9.514;2023-02-11T05:50:40;71626.34;;;19.49
64600;BMP280;6553;48.412;9.514;2023-02-11T05:53:05;71625.41;;;19.46
64600;BMP280;6553;48.412;9.514;2023-02-11T05:55:32;71621.47;;;19.47
64600;BMP280;6553;48.412;9.514;2023-02-11T05:57:58;71624.25;;;19.47
64600;BMP280;6553;48.412;9.514;2023-02-11T06:00:24;71625.84;;;19.49
64600;BMP280;6553;48.412;9.514;2023-02-11T06:02:50;71627.41;;;19.50
64600;BMP280;6553;48.412;9.514;2023-02-11T06:05:16;71622.00;;;19.48
64600;BMP280;6553;48.412;9.514;2023-02-11T06:07:42;71619.78;;;19.48
64600;BMP280;6553;48.412;9.514;2023-02-11T06:10:09;71629.13;;;19.49
64600;BMP280;6553;48.412;9.514;2023-02-11T06:12:36;71628.50;;;19.51
64600;BMP280;6553;48.412;9.514;2023-02-11T06:15:04;71629.53;;;19.52
64600;BMP280;6553;48.412;9.514;2023-02-11T06:17:30;71629.03;;;19.52
64600;BMP280;6553;48.412;9.514;2023-02-11T06:20:03;71627.31;;;19.53
64600;BMP280;6553;48.412;9.514;2023-02-11T06:22:29;71626.25;;;19.52
64600;BMP280;6553;48.412;9.514;2023-02-11T06:24:55;71629.03;;;19.52
64600;BMP280;6553;48.412;9.514;2023-02-11T06:27:21;71627.41;;;19.50
64600;BMP280;6553;48.412;9.514;2023-02-11T06:29:47;71630.63;;;19.53
64600;BMP280;6553;48.412;9.514;2023-02-11T06:32:13;71630.63;;;19.53
64600;BMP280;6553;48.412;9.514;2023-02-11T06:34:40;71630.09;;;19.53
64600;BMP280;6553;48.412;9.514;2023-02-11T06:37:06;71631.13;;;19.54
64600;BMP280;6553;48.412;9.514;2023-02-11T06:39:32;71629.44;;;19.55
64600;BMP280;6553;48.412;9.514;2023-02-11T06:41:58;71634.44;;;19.54
64600;BMP280;6553;48.412;9.514;2023-02-11T06:44:23;71629.44;;;19.55
64600;BMP280;6553;48.412;9.514;2023-02-11T06:46:49;71626.66;;;19.55
64600;BMP280;6553;48.412;9.514;2023-02-11T06:49:15;71627.19;;;19.55
64600;BMP280;6553;48.412;9.514;2023-02-11T06:51:41;71632.75;;;19.55
64600;BMP280;6553;48.412;9.514;2023-02-11T06:54:07;71630.50;;;19.56
64600;BMP280;6553;48.412;9.514;2023-02-11T06:56:33;71633.25;;;19.56
64600;BMP280;6553;48.412;9.514;2023-02-11T06:58:59;71628.91;;;19.54
64600;BMP280;6553;48.412;9.514;2023-02-11T07:01:26;71629.97;;;19.55
64600;BMP280;6553;48.412;9.514;2023-02-11T07:03:53;71632.19;;;19.55
64600;BMP280;6553;48.412;9.514;2023-02-11T07:06:23;71632.75;;;19.55
64600;BMP280;6553;48.412;9.514;2023-02-11T07:08:50;71632.19;;;19.55
64600;BMP280;6553;48.412;9.514;2023-02-11T07:11:24;71633.25;;;19.56
64600;BMP280;6553;48.412;9.514;2023-02-11T07:13:53;71632.19;;;19.55
64600;BMP280;6553;48.412;9.514;2023-02-11T07:16:20;71634.19;;;19.59
64600;BMP280;6553;48.412;9.514;2023-02-11T07:18:47;71635.41;;;19.58
64600;BMP280;6553;48.412;9.514;2023-02-11T07:21:17;71633.16;;;19.58
64600;BMP280;6553;48.412;9.514;2023-02-11T07:23:43;71639.13;;;19.62
64600;BMP280;6553;48.412;9.514;2023-02-11T07:26:14;71640.69;;;19.63
64600;BMP280;6553;48.412;9.514;2023-02-11T07:28:42;71637.91;;;19.63
64600;BMP280;6553;48.412;9.514;2023-02-11T07:31:11;71638.56;;;19.61
64600;BMP280;6553;48.412;9.514;2023-02-11T07:33:38;71640.16;;;19.63
64600;BMP280;6553;48.412;9.514;2023-02-11T07:36:06;71636.22;;;19.64
64600;BMP280;6553;48.412;9.514;2023-02-11T07:38:33;71643.44;;;19.63
64600;BMP280;6553;48.412;9.514;2023-02-11T07:41:09;71638.56;;;19.61
64600;BMP280;6553;48.412;9.514;2023-02-11T07:43:37;71640.16;;;19.63
64600;BMP280;6553;48.412;9.514;2023-02-11T07:46:39;71642.41;;;19.62
64600;BMP280;6553;48.412;9.514;2023-02-11T07:48:59;71640.69;;;19.63
64600;BMP280;6553;48.412;9.514;2023-02-11T07:51:29;71645.59;;;19.65
64600;BMP280;6553;48.412;9.514;2023-02-11T07:53:57;71642.81;;;19.65
64600;BMP280;6553;48.412;9.514;2023-02-11T07:56:24;71646.66;;;19.66
64600;BMP280;6553;48.412;9.514;2023-02-11T07:58:50;71642.16;;;19.67
64600;BMP280;6553;48.412;9.514;2023-02-11T08:01:20;71646.53;;;19.69
64600;BMP280;6553;48.412;9.514;2023-02-11T08:03:51;71645.38;;;19.70
64600;BMP280;6553;48.412;9.514;2023-02-11T08:06:20;71646.53;;;19.69
64600;BMP280;6553;48.412;9.514;2023-02-11T08:08:47;71649.19;;;19.71
64600;BMP280;6553;48.412;9.514;2023-02-11T08:11:18;71650.25;;;19.72
64600;BMP280;6553;48.412;9.514;2023-02-11T08:13:44;71652.38;;;19.74
64600;BMP280;6553;48.412;9.514;2023-02-11T08:16:28;71651.75;;;19.76
64600;BMP280;6553;48.412;9.514;2023-02-11T08:18:57;71652.78;;;19.77
64600;BMP280;6553;48.412;9.514;2023-02-11T08:21:24;71655.56;;;19.77
64600;BMP280;6553;48.412;9.514;2023-02-11T08:23:50;71647.91;;;19.75
64600;BMP280;6553;48.412;9.514;2023-02-11T08:26:24;71657.28;;;19.76
64600;BMP280;6553;48.412;9.514;2023-02-11T08:28:52;71651.75;;;19.76
64600;BMP280;6553;48.412;9.514;2023-02-11T08:31:22;71655.03;;;19.77
64600;BMP280;6553;48.412;9.514;2023-02-11T08:33:48;71658.72;;;19.80
64600;BMP280;6553;48.412;9.514;2023-02-11T08:36:18;71657.69;;;19.79
64600;BMP280;6553;48.412;9.514;2023-02-11T08:38:45;71651.63;;;19.79
64600;BMP280;6553;48.412;9.514;2023-02-11T08:41:11;71656.41;;;19.83
64600;BMP280;6553;48.412;9.514;2023-02-11T08:43:40;71660.88;;;19.82
64600;BMP280;6553;48.412;9.514;2023-02-11T08:46:08;71662.56;;;19.81
64600;BMP280;6553;48.412;9.514;2023-02-11T08:48:34;71663.66;;;19.82
64600;BMP280;6553;48.412;9.514;2023-02-11T08:51:06;71659.81;;;19.81
64600;BMP280;6553;48.412;9.514;2023-02-11T08:53:32;71661.41;;;19.83
64600;BMP280;6553;48.412;9.514;2023-02-11T08:55:58;71654.28;;;19.81
64600;BMP280;6553;48.412;9.514;2023-02-11T08:58:24;71658.66;;;19.83
64600;BMP280;6553;48.412;9.514;2023-02-11T09:00:50;71660.34;;;19.82
64600;BMP280;6553;48.412;9.514;2023-02-11T09:03:16;71658.72;;;19.80
64600;BMP280;6553;48.412;9.514;2023-02-11T09:05:44;71661.94;;;19.83
64600;BMP280;6553;48.412;9.514;2023-02-11T09:08:10;71659.06;;;19.86
64600;BMP280;6553;48.412;9.514;2023-02-11T09:10:36;71664.06;;;19.85
64600;BMP280;6553;48.412;9.514;2023-02-11T09:13:04;71663.41;;;19.87
64600;BMP280;6553;48.412;9.514;2023-02-11T09:15:30;71680.22;;;19.95
64600;BMP280;6553;48.412;9.514;2023-02-11T09:17:56;71667.56;;;19.94
64600;BMP280;6553;48.412;9.514;2023-02-11T09:20:23;71667.25;;;19.88
64600;BMP280;6553;48.412;9.514;2023-02-11T09:22:49;71672.56;;;19.93
64600;BMP280;6553;48.412;9.514;2023-02-11T09:25:15;71667.66;;;19.91
64600;BMP280;6553;48.412;9.514;2023-02-11T09:27:41;71668.72;;;19.92
64600;BMP280;6553;48.412;9.514;2023-02-11T09:30:07;71674.28;;;19.92
64600;BMP280;6553;48.412;9.514;2023-02-11T09:32:33;71666.47;;;19.93
64600;BMP280;6553;48.412;9.514;2023-02-11T09:34:59;71664.59;;;19.86
64600;BMP280;6553;48.412;9.514;2023-02-11T09:37:25;71670.44;;;19.91
64600;BMP280;6553;48.412;9.514;2023-02-11T09:39:51;71675.88;;;19.94
64600;BMP280;6553;48.412;9.514;2023-02-11T09:45:24;71680.63;;;19.98
64600;BMP280;6553;48.412;9.514;2023-02-11T09:48:26;71672.84;;;19.99
64600;BMP280;6553;48.412;9.514;2023-02-11T09:50:59;71679.88;;;20.03
64600;BMP280;6553;48.412;9.514;2023-02-11T09:53:28;71676.03;;;20.02
64600;BMP280;6553;48.412;9.514;2023-02-11T09:56:01;71677.31;;;19.98
64600;BMP280;6553;48.412;9.514;2023-02-11T09:58:32;71678.94;;;19.99
64600;BMP280;6553;48.412;9.514;2023-02-11T10:04:10;71684.78;;;20.05
64600;BMP280;6553;48.412;9.514;2023-02-11T10:10:00;71690.19;;;20.07
64600;BMP280;6553;48.412;9.514;2023-02-11T10:13:25;71686.91;;;20.07
64600;BMP280;6553;48.412;9.514;2023-02-11T10:19:02;71689.03;;;20.09
64600;BMP280;6553;48.412;9.514;2023-02-11T10:22:09;71683.47;;;20.09
64600;BMP280;6553;48.412;9.514;2023-02-11T10:24:37;71688.91;;;20.11
64600;BMP280;6553;48.412;9.514;2023-02-11T10:27:20;71695.41;;;20.15
64600;BMP280;6553;48.412;9.514;2023-02-11T10:29:53;71695.91;;;20.15
64600;BMP280;6553;48.412;9.514;2023-02-11T10:32:44;71698.56;;;20.18
64600;BMP280;6553;48.412;9.514;2023-02-11T10:35:22;71699.13;;;20.18
64600;BMP280;6553;48.412;9.514;2023-02-11T10:37:48;71696.84;;;20.19
64600;BMP280;6553;48.412;9.514;2023-02-11T10:40:32;71700.56;;;20.22
64600;BMP280;6553;48.412;9.514;2023-02-11T10:43:03;71707.19;;;20.23
64600;BMP280;6553;48.412;9.514;2023-02-11T10:45:43;71708.81;;;20.25
64600;BMP280;6553;48.412;9.514;2023-02-11T10:53:35;71705.50;;;20.24
64600;BMP280;6553;48.412;9.514;2023-02-11T10:56:03;71698.34;;;20.23
64600;BMP280;6553;48.412;9.514;2023-02-11T10:58:58;71698.34;;;20.23
64600;BMP280;6553;48.412;9.514;2023-02-11T11:01:59;71705.50;;;20.24
64600;BMP280;6553;48.412;9.514;2023-02-11T11:04:33;71707.19;;;20.23
64600;BMP280;6553;48.412;9.514;2023-02-11T11:07:24;71701.00;;;20.25
64600;BMP280;6553;48.412;9.514;2023-02-11T11:17:39;71707.59;;;20.26
64600;BMP280;6553;48.412;9.514;2023-02-11T11:20:29;71710.38;;;20.26
64600;BMP280;6553;48.412;9.514;2023-02-11T11:23:21;71706.03;;;20.25
64600;BMP280;6553;48.412;9.514;2023-02-11T11:26:11;71707.47;;;20.29
64600;BMP280;6553;48.412;9.514;2023-02-11T11:29:01;71708.66;;;20.27
64600;BMP280;6553;48.412;9.514;2023-02-11T11:31:48;71709.75;;;20.28
64600;BMP280;6553;48.412;9.514;2023-02-11T11:34:28;71710.50;;;20.24
64600;BMP280;6553;48.412;9.514;2023-02-11T11:36:58;71711.97;;;20.28
64600;BMP280;6553;48.412;9.514;2023-02-11T11:39:31;71704.19;;;20.28
64600;BMP280;6553;48.412;9.514;2023-02-11T11:42:19;71712.91;;;20.31
64600;BMP280;6553;48.412;9.514;2023-02-11T11:44:57;71709.59;;;20.31
64600;BMP280;6553;48.412;9.514;2023-02-11T11:47:38;71715.59;;;20.34
64600;BMP280;6553;48.412;9.514;2023-02-11T11:53:09;71716.13;;;20.34
64600;BMP280;6553;48.412;9.514;2023-02-11T11:58:23;71716.13;;;20.34
64600;BMP280;6553;48.412;9.514;2023-02-11T12:04:31;71714.41;;;20.35
64600;BMP280;6553;48.412;9.514;2023-02-11T12:10:22;71718.75;;;20.37
64600;BMP280;6553;48.412;9.514;2023-02-11T12:21:42;71719.06;;;20.42
64600;BMP280;6553;48.412;9.514;2023-02-11T12:24:35;71720.78;;;20.41
64600;BMP280;6553;48.412;9.514;2023-02-11T12:51:40;71731.50;;;20.49
64600;BMP280;6553;48.412;9.514;2023-02-11T12:57:14;71729.78;;;20.50
64600;BMP280;6553;48.412;9.514;2023-02-11T12:59:58;71734.16;;;20.51
64600;BMP280;6553;48.412;9.514;2023-02-11T13:02:41;71734.69;;;20.52
64600;BMP280;6553;48.412;9.514;2023-02-11T13:05:43;71732.44;;;20.52
64600;BMP280;6553;48.412;9.514;2023-02-11T13:08:36;71734.69;;;20.52
64600;BMP280;6553;48.412;9.514;2023-02-11T13:11:10;71731.38;;;20.51
64600;BMP280;6553;48.412;9.514;2023-02-11T13:14:14;71739.06;;;20.53
64600;BMP280;6553;48.412;9.514;2023-02-11T13:16:45;71734.81;;;20.49
64600;BMP280;6553;48.412;9.514;2023-02-11T13:22:10;71731.38;;;20.51
64600;BMP280;6553;48.412;9.514;2023-02-11T13:28:04;71737.34;;;20.54
64600;BMP280;6553;48.412;9.514;2023-02-11T13:30:39;71734.59;;;20.54
64600;BMP280;6553;48.412;9.514;2023-02-11T13:38:31;71740.25;;;20.52
64600;BMP280;6553;48.412;9.514;2023-02-11T13:41:28;71736.81;;;20.54
64600;BMP280;6553;48.412;9.514;2023-02-11T13:46:57;71733.00;;;20.53
64600;BMP280;6553;48.412;9.514;2023-02-11T13:49:36;71730.75;;;20.53
64600;BMP280;6553;48.412;9.514;2023-02-11T13:52:28;71736.28;;;20.53
64600;BMP280;6553;48.412;9.514;2023-02-11T13:55:13;71736.28;;;20.53
64600;BMP280;6553;48.412;9.514;2023-02-11T13:57:44;71740.13;;;20.54
64600;BMP280;6553;48.412;9.514;2023-02-11T14:06:21;71739.06;;;20.53
64600;BMP280;6553;48.412;9.514;2023-02-11T14:14:30;71736.28;;;20.53
64600;BMP280;6553;48.412;9.514;2023-02-11T14:19:43;71740.13;;;20.54
64600;BMP280;6553;48.412;9.514;2023-02-11T14:22:26;71736.28;;;20.53
64600;BMP280;6553;48.412;9.514;2023-02-11T14:27:29;71736.28;;;20.53
64600;BMP280;6553;48.412;9.514;2023-02-11T14:30:19;71735.22;;;20.52
64600;BMP280;6553;48.412;9.514;2023-02-11T14:33:04;71739.06;;;20.53
64600;BMP280;6553;48.412;9.514;2023-02-11T14:36:17;71735.75;;;20.53
64600;BMP280;6553;48.412;9.514;2023-02-11T14:41:39;71734.69;;;20.52
64600;BMP280;6553;48.412;9.514;2023-02-11T14:44:23;71733.63;;;20.51
64600;BMP280;6553;48.412;9.514;2023-02-11T14:46:52;71735.22;;;20.52
64600;BMP280;6553;48.412;9.514;2023-02-11T14:49:31;71737.47;;;20.52
64600;BMP280;6553;48.412;9.514;2023-02-11T14:52:32;71734.69;;;20.52
64600;BMP280;6553;48.412;9.514;2023-02-11T14:55:23;71728.63;;;20.51
64600;BMP280;6553;48.412;9.514;2023-02-11T15:04:05;71734.16;;;20.51
64600;BMP280;6553;48.412;9.514;2023-02-11T15:06:40;71738.53;;;20.53
64600;BMP280;6553;48.412;9.514;2023-02-11T15:09:25;71733.63;;;20.51
64600;BMP280;6553;48.412;9.514;2023-02-11T15:11:56;71734.16;;;20.51
64600;BMP280;6553;48.412;9.514;2023-02-11T15:14:26;71737.47;;;20.52
64600;BMP280;6553;48.412;9.514;2023-02-11T15:16:57;71730.88;;;20.51
64600;BMP280;6553;48.412;9.514;2023-02-11T15:19:34;71730.88;;;20.51
64600;BMP280;6553;48.412;9.514;2023-02-11T15:22:05;71733.09;;;20.50
64600;BMP280;6553;48.412;9.514;2023-02-11T15:24:34;71734.16;;;20.51
64600;BMP280;6553;48.412;9.514;2023-02-11T15:27:13;71733.63;;;20.51
64600;BMP280;6553;48.412;9.514;2023-02-11T15:29:49;71740.25;;;20.52
64600;BMP280;6553;48.412;9.514;2023-02-11T15:32:22;71734.16;;;20.51
64600;BMP280;6553;48.412;9.514;2023-02-11T15:34:51;71733.09;;;20.50
64600;BMP280;6553;48.412;9.514;2023-02-11T15:37:23;71733.63;;;20.51
64600;BMP280;6553;48.412;9.514;2023-02-11T15:39:51;71730.31;;;20.50
64600;BMP280;6553;48.412;9.514;2023-02-11T15:42:27;71733.09;;;20.50
64600;BMP280;6553;48.412;9.514;2023-02-11T15:48:20;71736.41;;;20.51
64600;BMP280;6553;48.412;9.514;2023-02-11T15:53:51;71732.06;;;20.49
64600;BMP280;6553;48.412;9.514;2023-02-11T15:56:28;71726.50;;;20.49
64600;BMP280;6553;48.412;9.514;2023-02-11T15:58:58;71731.50;;;20.49
64600;BMP280;6553;48.412;9.514;2023-02-11T16:01:36;71728.34;;;20.46
64600;BMP280;6553;48.412;9.514;2023-02-11T16:04:03;71728.84;;;20.46
64600;BMP280;6553;48.412;9.514;2023-02-11T16:06:39;71727.13;;;20.47
64600;BMP280;6553;48.412;9.514;2023-02-11T16:11:58;71725.97;;;20.49
64600;BMP280;6553;48.412;9.514;2023-02-11T16:14:33;71729.38;;;20.47
64600;BMP280;6553;48.412;9.514;2023-02-11T16:17:25;71728.84;;;20.46
64600;BMP280;6553;48.412;9.514;2023-02-11T16:19:52;71732.28;;;20.44
64600;BMP280;6553;48.412;9.514;2023-02-11T16:22:29;71729.50;;;20.44
64600;BMP280;6553;48.412;9.514;2023-02-11T16:25:00;71726.19;;;20.44
64600;BMP280;6553;48.412;9.514;2023-02-11T16:27:40;71726.19;;;20.44
64600;BMP280;6553;48.412;9.514;2023-02-11T16:30:37;71726.19;;;20.44
64600;BMP280;6553;48.412;9.514;2023-02-11T16:33:03;71730.69;;;20.43
64600;BMP280;6553;48.412;9.514;2023-02-11T16:35:30;71726.19;;;20.44
64600;BMP280;6553;48.412;9.514;2023-02-11T16:37:56;71724.09;;;20.42
64600;BMP280;6553;48.412;9.514;2023-02-11T16:40:22;71718.00;;;20.41
64600;BMP280;6553;48.412;9.514;2023-02-11T16:42:48;71722.47;;;20.40
64600;BMP280;6553;48.412;9.514;2023-02-11T16:45:15;71721.94;;;20.40
64600;BMP280;6553;48.412;9.514;2023-02-11T16:47:42;71718.63;;;20.39
64600;BMP280;6553;48.412;9.514;2023-02-11T16:50:11;71724.09;;;20.42
64600;BMP280;6553;48.412;9.514;2023-02-11T16:52:43;71719.06;;;20.42
64600;BMP280;6553;48.412;9.514;2023-02-11T16:55:11;71718.63;;;20.39
64600;BMP280;6553;48.412;9.514;2023-02-11T16:57:37;71724.16;;;20.39
64600;BMP280;6553;48.412;9.514;2023-02-11T17:00:06;71717.06;;;20.38
64600;BMP280;6553;48.412;9.514;2023-02-11T17:02:36;71723.13;;;20.38
64600;BMP280;6553;48.412;9.514;2023-02-11T17:05:06;71721.41;;;20.39
64600;BMP280;6553;48.412;9.514;2023-02-11T17:07:32;71720.38;;;20.38
64600;BMP280;6553;48.412;9.514;2023-02-11T17:09:58;71724.31;;;20.37
64600;BMP280;6553;48.412;9.514;2023-02-11T17:12:24;71724.31;;;20.37
64600;BMP280;6553;48.412;9.514;2023-02-11T17:14:51;71718.63;;;20.39
64600;BMP280;6553;48.412;9.514;2023-02-11T17:17:17;71717.59;;;20.38